YXC weather

Cranbrook/Canadian Rockies International Airport
Cranbrook, British Columbia, Canada

Public forecast

Using degrees Celsius for public forecast. Weather courtesy of forecast.io.

Current aviation weather report (METAR) for Cranbrook/Canadian Rockies International Airport

Retrieved 2019/12/07 21:00 UTC (29 minutes ago):

CYXC 072100Z 14005KT 15SM -RA FEW010 OVC039 05/02 A2968 RMK SF1SC7 SLP070

Aviation forecast (TAF) for Cranbrook/Canadian Rockies International Airport

Retrieved 2019/12/07 19:39 UTC (2 hours ago):

TAF CYXC 071838Z 0719/0807 17008KT P6SM FEW010 OVC050 TEMPO 0719/0803 P6SM -RA FM080300 19005KT P6SM SCT015 BKN030 TEMPO 0803/0807 3SM -RASN BR BKN015 RMK NXT FCST BY 080100Z